Time;durP1;ratioP1;P1;durP2;ratioP2;P2;SDS_P1;SDS_P2;PMS_P1;PMS_P2;Temp;Humidity;BMP_temperature;BMP_pressure;BME280_temperature;BME280_humidity;BME280_pressure;Samples;Min_cycle;Max_cycle;Signal;HPM_P1;HPM_P2
2022/12/01 00:02:06;;;;;;;87.38;43.60;;;6.40;99.90;;;;;;5014292;28;20418;-74
2022/12/01 00:04:32;;;;;;;95.57;45.67;;;6.30;99.90;;;;;;5041748;28;20899;-74
2022/12/01 00:06:57;;;;;;;90.43;45.05;;;6.40;99.90;;;;;;5034412;28;20412;-74
2022/12/01 00:12:07;;;;;;;87.00;43.42;;;6.40;99.90;;;;;;5013466;28;21117;-74
2022/12/01 00:14:33;;;;;;;87.13;44.25;;;6.40;99.90;;;;;;5040786;28;20473;-74
2022/12/01 00:16:58;;;;;;;87.47;45.00;;;6.40;99.90;;;;;;5037029;28;20409;-74
2022/12/01 00:19:25;;;;;;;86.93;43.70;;;6.40;99.90;;;;;;5028904;28;20440;-74
2022/12/01 00:21:50;;;;;;;89.43;44.47;;;6.40;99.90;;;;;;5047135;28;20397;-74
2022/12/01 00:24:16;;;;;;;87.50;45.17;;;6.40;99.90;;;;;;5047318;28;20507;-74
2022/12/01 00:26:42;;;;;;;88.37;44.73;;;6.30;99.90;;;;;;5047085;28;20397;-75
2022/12/01 00:29:07;;;;;;;89.60;45.10;;;6.30;99.90;;;;;;5027478;28;20798;-74
2022/12/01 00:31:33;;;;;;;90.38;45.20;;;6.30;99.90;;;;;;4992302;28;20432;-74
2022/12/01 00:33:58;;;;;;;90.47;46.30;;;6.30;99.90;;;;;;5024546;28;20476;-74
2022/12/01 00:36:24;;;;;;;87.63;44.42;;;6.30;99.90;;;;;;5050518;28;20907;-74
2022/12/01 00:38:54;;;;;;;93.22;45.63;;;6.30;99.90;;;;;;5049404;28;20504;-74
2022/12/01 00:41:21;;;;;;;89.27;44.50;;;6.30;99.90;;;;;;5049250;28;20493;-74
2022/12/01 00:43:47;;;;;;;89.57;45.30;;;6.30;99.90;;;;;;5040462;28;20430;-74
2022/12/01 00:46:12;;;;;;;92.93;46.38;;;6.30;99.90;;;;;;5051439;28;21000;-74
2022/12/01 00:48:38;;;;;;;88.87;45.23;;;6.30;99.90;;;;;;5048312;28;20403;-74
2022/12/01 00:51:04;;;;;;;92.63;46.70;;;6.30;99.90;;;;;;5033890;28;20405;-74
2022/12/01 00:53:30;;;;;;;90.53;45.80;;;6.30;99.90;;;;;;5018934;28;20401;-74
2022/12/01 00:55:56;;;;;;;94.85;46.40;;;6.30;99.90;;;;;;5040551;28;20401;-74
2022/12/01 00:58:23;;;;;;;98.70;46.97;;;6.30;99.90;;;;;;5015880;28;20857;-74
2022/12/01 01:00:55;;;;;;;93.03;46.05;;;6.30;99.90;;;;;;5041021;28;20914;-74
2022/12/01 01:03:21;;;;;;;95.88;47.10;;;6.30;99.90;;;;;;5049770;28;20431;-74
2022/12/01 01:05:46;;;;;;;96.35;47.70;;;6.30;99.90;;;;;;5050460;28;20895;-74
2022/12/01 01:08:13;;;;;;;100.10;46.70;;;6.30;99.90;;;;;;5046938;28;20411;-74
2022/12/01 01:10:44;;;;;;;93.95;46.33;;;6.30;99.90;;;;;;5023571;28;20903;-74
2022/12/01 01:13:11;;;;;;;96.55;47.28;;;6.30;99.90;;;;;;5046989;28;20415;-74
2022/12/01 01:15:37;;;;;;;94.80;48.15;;;6.30;99.90;;;;;;5031953;28;20410;-74
2022/12/01 01:18:04;;;;;;;96.05;47.47;;;6.30;99.90;;;;;;5043971;28;20541;-74
2022/12/01 01:20:32;;;;;;;97.85;47.42;;;6.30;99.90;;;;;;5013481;28;20769;-74
2022/12/01 01:22:58;;;;;;;98.43;46.10;;;6.30;99.90;;;;;;5035506;28;20467;-73
2022/12/01 01:25:24;;;;;;;96.80;46.28;;;6.30;99.90;;;;;;5038339;28;20414;-73
2022/12/01 01:27:50;;;;;;;97.13;47.63;;;6.30;99.90;;;;;;5018308;28;20410;-73
2022/12/01 01:30:16;;;;;;;99.75;46.35;;;6.30;99.90;;;;;;5050088;28;20413;-74
2022/12/01 01:32:42;;;;;;;102.07;48.88;;;6.30;99.90;;;;;;5027095;28;20425;-74
2022/12/01 01:35:08;;;;;;;100.82;48.30;;;6.30;99.90;;;;;;5037075;28;20407;-74
2022/12/01 01:37:33;;;;;;;102.30;48.07;;;6.30;99.90;;;;;;5035492;28;20429;-74
2022/12/01 01:39:59;;;;;;;100.20;47.70;;;6.30;99.90;;;;;;5050548;28;20451;-74
2022/12/01 01:42:25;;;;;;;107.60;49.33;;;6.30;99.90;;;;;;5043994;28;20501;-73
2022/12/01 01:44:55;;;;;;;105.17;47.87;;;6.30;99.90;;;;;;5048135;28;20914;-74
2022/12/01 01:47:27;;;;;;;100.30;48.53;;;6.30;99.90;;;;;;5013726;28;20491;-73
2022/12/01 01:49:55;;;;;;;100.25;47.65;;;6.40;99.90;;;;;;5043399;28;20488;-73
2022/12/01 01:52:22;;;;;;;101.40;48.80;;;6.40;99.90;;;;;;5031848;28;20480;-73
2022/12/01 01:54:50;;;;;;;102.75;48.92;;;6.30;99.90;;;;;;5008220;28;20437;-73
2022/12/01 01:57:22;;;;;;;105.72;48.72;;;6.30;99.90;;;;;;5018691;28;20417;-73
2022/12/01 01:59:54;;;;;;;106.20;49.53;;;6.30;99.90;;;;;;5036664;28;20452;-73
2022/12/01 02:02:19;;;;;;;107.55;49.97;;;6.30;99.90;;;;;;5040493;28;20435;-73
2022/12/01 02:04:49;;;;;;;103.97;49.90;;;6.30;99.90;;;;;;5042417;28;21011;-73
2022/12/01 02:07:17;;;;;;;105.57;48.72;;;6.30;99.90;;;;;;5036860;28;20417;-72
2022/12/01 02:09:43;;;;;;;111.95;51.40;;;6.30;99.90;;;;;;5042715;28;20407;-73
2022/12/01 02:12:34;;;;;;;107.43;50.13;;;6.30;99.90;;;;;;5020410;28;20467;-73
2022/12/01 02:15:29;;;;;;;104.23;50.60;;;6.30;99.90;;;;;;5043064;28;20461;-73
2022/12/01 02:18:13;;;;;;;103.60;48.78;;;6.30;99.90;;;;;;4998367;28;20948;-73
2022/12/01 02:20:44;;;;;;;104.65;48.30;;;6.30;99.90;;;;;;5037501;28;20419;-73
2022/12/01 02:23:22;;;;;;;99.22;47.45;;;6.30;99.90;;;;;;5035701;28;20450;-73
2022/12/01 02:26:10;;;;;;;102.40;47.78;;;6.30;99.90;;;;;;5043129;28;20781;-73
2022/12/01 02:28:55;;;;;;;108.20;48.75;;;6.30;99.90;;;;;;5039777;28;20436;-73
2022/12/01 02:31:23;;;;;;;103.70;48.38;;;6.30;99.90;;;;;;5029704;28;20447;-73
2022/12/01 02:34:01;;;;;;;100.80;48.00;;;6.30;99.90;;;;;;5048645;28;20405;-73
2022/12/01 02:36:51;;;;;;;104.72;48.47;;;6.30;99.90;;;;;;5049330;28;20406;-73
2022/12/01 02:39:39;;;;;;;105.15;48.10;;;6.30;99.90;;;;;;5024502;28;20436;-73
2022/12/01 02:42:47;;;;;;;101.70;47.90;;;6.30;99.90;;;;;;5046304;28;20417;-73
2022/12/01 02:45:04;;;;;;;102.27;47.73;;;6.30;99.90;;;;;;5029335;28;20405;-73
2022/12/01 02:47:32;;;;;;;103.22;46.95;;;6.30;99.90;;;;;;5021901;28;20401;-73
2022/12/01 02:49:58;;;;;;;99.78;46.97;;;6.30;99.90;;;;;;5034864;28;20438;-73
2022/12/01 02:52:25;;;;;;;105.97;48.77;;;6.30;99.90;;;;;;5011641;28;20900;-73
2022/12/01 02:54:52;;;;;;;106.03;48.45;;;6.30;99.90;;;;;;5021443;28;20987;-73
2022/12/01 02:57:18;;;;;;;101.22;46.97;;;6.30;99.90;;;;;;5023008;28;20406;-73
2022/12/01 02:59:50;;;;;;;100.68;47.25;;;6.40;99.90;;;;;;5018752;28;20412;-73
2022/12/01 03:02:16;;;;;;;99.72;47.42;;;6.40;99.90;;;;;;5018964;28;21004;-73
2022/12/01 03:05:05;;;;;;;101.00;46.75;;;6.40;99.90;;;;;;5022969;28;20445;-73
2022/12/01 03:07:55;;;;;;;101.40;48.28;;;6.40;99.90;;;;;;5013354;28;20484;-73
2022/12/01 03:10:53;;;;;;;103.18;47.25;;;6.30;99.90;;;;;;5018788;28;20417;-73
2022/12/01 03:13:54;;;;;;;104.33;48.27;;;6.30;99.90;;;;;;5045955;28;20435;-73
2022/12/01 03:16:25;;;;;;;98.10;47.78;;;6.40;99.90;;;;;;5023190;28;20407;-73
2022/12/01 03:19:03;;;;;;;104.57;47.10;;;6.30;99.90;;;;;;5001859;28;20466;-73
2022/12/01 03:21:43;;;;;;;99.75;46.92;;;6.30;99.90;;;;;;5047172;28;20405;-73
2022/12/01 03:24:15;;;;;;;102.88;46.75;;;6.40;99.90;;;;;;5008788;28;20426;-73
2022/12/01 03:26:45;;;;;;;96.13;46.13;;;6.40;99.90;;;;;;5031123;28;20416;-73
2022/12/01 03:29:19;;;;;;;102.05;48.00;;;6.40;99.90;;;;;;5029725;28;20874;-73
2022/12/01 03:31:49;;;;;;;96.82;45.80;;;6.40;99.90;;;;;;5044255;28;20463;-73
2022/12/01 03:34:39;;;;;;;99.27;45.67;;;6.40;99.90;;;;;;5029999;28;20413;-73
2022/12/01 03:37:37;;;;;;;95.45;46.30;;;6.40;99.90;;;;;;5022409;28;20409;-73
2022/12/01 03:40:07;;;;;;;98.22;45.53;;;6.40;99.90;;;;;;4989043;28;20426;-73
2022/12/01 03:42:56;;;;;;;104.28;47.40;;;6.40;99.90;;;;;;5044112;28;20414;-73
2022/12/01 03:45:50;;;;;;;100.38;45.75;;;6.40;99.90;;;;;;5021424;28;20459;-73
2022/12/01 03:48:16;;;;;;;95.45;44.40;;;6.40;99.90;;;;;;4987891;28;20488;-73
2022/12/01 03:51:01;;;;;;;98.47;45.53;;;6.40;99.90;;;;;;5022857;28;20417;-73
2022/12/01 03:53:31;;;;;;;93.78;45.05;;;6.40;99.90;;;;;;4982516;28;20473;-73
2022/12/01 03:56:02;;;;;;;94.33;44.43;;;6.40;99.90;;;;;;5041227;28;20485;-73
2022/12/01 03:58:33;;;;;;;94.85;45.28;;;6.40;99.90;;;;;;5028359;28;20521;-73
2022/12/01 04:01:01;;;;;;;95.80;43.70;;;6.40;99.90;;;;;;5010858;28;20409;-73
2022/12/01 04:03:27;;;;;;;88.35;42.88;;;6.40;99.90;;;;;;5020054;28;20406;-73
2022/12/01 04:05:53;;;;;;;91.90;42.03;;;6.40;99.90;;;;;;5034204;28;20397;-73
2022/12/01 04:08:18;;;;;;;84.70;39.90;;;6.40;99.90;;;;;;5047480;28;20516;-73
2022/12/01 04:10:44;;;;;;;86.17;41.10;;;6.40;99.90;;;;;;5029158;28;20401;-73
2022/12/01 04:13:15;;;;;;;81.60;40.72;;;6.40;99.90;;;;;;5047584;28;20736;-73
2022/12/01 04:15:42;;;;;;;78.38;40.47;;;6.40;99.90;;;;;;5039751;28;20468;-73
2022/12/01 04:18:07;;;;;;;78.32;39.72;;;6.40;99.90;;;;;;5003033;28;20434;-73
2022/12/01 04:20:33;;;;;;;79.13;38.43;;;6.40;99.90;;;;;;5040352;28;20469;-73
2022/12/01 04:22:58;;;;;;;77.15;38.38;;;6.40;99.90;;;;;;5019622;28;20840;-73
2022/12/01 04:25:24;;;;;;;78.93;37.67;;;6.40;99.90;;;;;;5030666;28;20422;-73
2022/12/01 04:27:50;;;;;;;73.22;37.28;;;6.40;99.90;;;;;;5037578;28;20433;-73
2022/12/01 04:30:15;;;;;;;78.33;38.73;;;6.40;99.90;;;;;;5015308;28;20900;-73
2022/12/01 04:32:42;;;;;;;72.13;36.30;;;6.40;99.90;;;;;;5047998;28;20399;-73
2022/12/01 04:35:10;;;;;;;74.80;36.65;;;6.40;99.90;;;;;;5029976;28;20434;-73
2022/12/01 04:37:36;;;;;;;73.35;36.63;;;6.40;99.90;;;;;;5039488;28;20421;-73
2022/12/01 04:40:02;;;;;;;70.80;37.13;;;6.40;99.90;;;;;;5017795;28;20459;-73
2022/12/01 04:42:27;;;;;;;72.37;37.07;;;6.40;99.90;;;;;;5039237;28;20451;-73
2022/12/01 04:44:53;;;;;;;72.38;36.90;;;6.40;99.90;;;;;;5046195;28;20404;-73
2022/12/01 04:47:18;;;;;;;71.10;35.97;;;6.40;99.90;;;;;;5035865;28;20476;-73
2022/12/01 04:49:44;;;;;;;71.97;35.70;;;6.40;99.90;;;;;;5040966;28;20463;-73
2022/12/01 04:52:09;;;;;;;72.07;35.87;;;6.40;99.90;;;;;;5034114;28;20814;-73
2022/12/01 04:54:35;;;;;;;71.57;36.28;;;6.40;99.90;;;;;;5044832;28;20505;-74
2022/12/01 04:57:01;;;;;;;69.90;35.73;;;6.40;99.90;;;;;;5029575;28;20425;-73
2022/12/01 04:59:26;;;;;;;70.53;35.90;;;6.40;99.90;;;;;;5030321;28;20466;-74
2022/12/01 05:01:52;;;;;;;71.88;35.85;;;6.40;99.90;;;;;;5028148;28;20406;-74
2022/12/01 05:04:17;;;;;;;73.87;36.97;;;6.40;99.90;;;;;;5040028;28;20482;-72
2022/12/01 05:06:43;;;;;;;69.75;35.13;;;6.40;99.90;;;;;;5038072;28;21425;-73
2022/12/01 05:09:13;;;;;;;67.50;35.53;;;6.40;99.90;;;;;;5011664;28;20426;-72
2022/12/01 05:11:38;;;;;;;69.70;36.78;;;6.40;99.90;;;;;;5006477;28;20504;-72
2022/12/01 05:14:05;;;;;;;70.03;35.80;;;6.40;99.90;;;;;;5026070;28;20519;-72
2022/12/01 05:16:32;;;;;;;70.55;35.78;;;6.40;99.90;;;;;;5039929;28;20397;-72
2022/12/01 05:21:49;;;;;;;70.03;36.05;;;6.40;99.90;;;;;;5044377;28;20406;-73
2022/12/01 05:24:16;;;;;;;69.85;35.92;;;6.40;99.90;;;;;;5031160;28;20427;-73
2022/12/01 05:26:42;;;;;;;71.05;35.97;;;6.40;99.90;;;;;;5033280;28;20571;-73
2022/12/01 05:29:09;;;;;;;67.23;34.97;;;6.40;99.90;;;;;;5029162;28;20407;-75
2022/12/01 05:31:35;;;;;;;71.15;36.58;;;6.40;99.90;;;;;;5043050;28;20404;-73
2022/12/01 05:34:01;;;;;;;71.40;37.05;;;6.40;99.90;;;;;;5038967;28;20838;-73
2022/12/01 05:36:27;;;;;;;71.18;36.35;;;6.40;99.90;;;;;;5040453;28;20413;-73
2022/12/01 05:38:53;;;;;;;73.25;36.05;;;6.40;99.90;;;;;;5048535;28;20429;-75
2022/12/01 05:41:19;;;;;;;72.47;35.03;;;6.40;99.90;;;;;;5036899;28;20750;-73
2022/12/01 05:43:44;;;;;;;72.85;36.08;;;6.40;99.90;;;;;;5037046;28;20461;-75
2022/12/01 05:46:11;;;;;;;67.93;35.20;;;6.40;99.90;;;;;;5044468;28;20405;-74
2022/12/01 05:48:36;;;;;;;68.38;33.55;;;6.40;99.90;;;;;;5020755;28;20401;-73
2022/12/01 05:51:10;;;;;;;69.17;34.33;;;6.40;99.90;;;;;;5049229;28;20492;-75
2022/12/01 05:53:36;;;;;;;71.38;35.50;;;6.40;99.90;;;;;;5030877;28;20418;-73
2022/12/01 05:56:02;;;;;;;67.22;34.15;;;6.40;99.90;;;;;;4993967;28;20411;-73
2022/12/01 05:58:28;;;;;;;67.57;35.08;;;6.40;99.90;;;;;;5026452;28;20479;-74
2022/12/01 06:00:53;;;;;;;68.93;35.03;;;6.40;99.90;;;;;;5028334;28;20401;-74
2022/12/01 06:03:19;;;;;;;65.30;34.70;;;6.40;99.90;;;;;;5022939;28;20479;-73
2022/12/01 06:05:44;;;;;;;68.67;33.90;;;6.40;99.90;;;;;;5030267;28;20549;-73
2022/12/01 06:08:10;;;;;;;67.78;34.28;;;6.50;99.90;;;;;;5045334;28;20427;-73
2022/12/01 06:10:35;;;;;;;65.33;33.53;;;6.40;99.90;;;;;;5036555;28;20411;-73
2022/12/01 06:13:01;;;;;;;65.43;33.60;;;6.40;99.90;;;;;;5029266;28;20503;-72
2022/12/01 06:15:27;;;;;;;69.77;34.40;;;6.40;99.90;;;;;;5032214;28;20414;-73
2022/12/01 06:17:52;;;;;;;66.73;34.33;;;6.40;99.90;;;;;;5040492;28;20498;-73
2022/12/01 06:20:18;;;;;;;66.70;34.70;;;6.40;99.90;;;;;;5039492;28;20401;-73
2022/12/01 06:22:43;;;;;;;63.67;33.80;;;6.40;99.90;;;;;;5029873;28;20407;-72
2022/12/01 06:25:09;;;;;;;67.85;33.75;;;6.40;99.90;;;;;;5032097;28;20398;-73
2022/12/01 06:27:35;;;;;;;68.38;34.50;;;6.40;99.90;;;;;;5046370;28;20422;-73
2022/12/01 06:30:01;;;;;;;66.70;34.00;;;6.40;99.90;;;;;;5031016;28;20905;-73
2022/12/01 06:32:26;;;;;;;72.97;35.95;;;6.40;99.90;;;;;;5049436;28;20476;-73
2022/12/01 06:34:52;;;;;;;71.93;35.38;;;6.40;99.90;;;;;;5044468;28;20830;-73
2022/12/01 06:37:18;;;;;;;73.27;35.53;;;6.40;99.90;;;;;;5040367;28;20407;-73
2022/12/01 06:39:43;;;;;;;68.85;34.75;;;6.40;99.90;;;;;;5033221;28;20418;-73
2022/12/01 06:42:09;;;;;;;69.70;35.20;;;6.40;99.90;;;;;;5048103;28;20768;-73
2022/12/01 06:44:34;;;;;;;68.60;34.03;;;6.40;99.90;;;;;;5015112;28;20407;-73
2022/12/01 06:47:00;;;;;;;62.17;32.55;;;6.40;99.90;;;;;;5047515;28;20403;-73
2022/12/01 06:49:26;;;;;;;62.83;32.27;;;6.40;99.90;;;;;;5026910;28;20438;-74
2022/12/01 06:51:51;;;;;;;60.83;31.77;;;6.30;99.90;;;;;;5034614;28;20395;-75
2022/12/01 06:54:17;;;;;;;61.00;32.07;;;6.30;99.90;;;;;;5024444;28;21585;-74
2022/12/01 06:56:44;;;;;;;63.75;32.13;;;6.40;99.90;;;;;;5031044;28;20403;-74
2022/12/01 06:59:10;;;;;;;63.67;32.70;;;6.30;99.90;;;;;;5039955;28;20435;-74
2022/12/01 07:01:36;;;;;;;67.50;32.10;;;6.30;99.90;;;;;;5029138;28;20519;-74
2022/12/01 07:04:02;;;;;;;67.57;31.98;;;6.20;99.90;;;;;;5039845;28;20423;-73
2022/12/01 07:06:29;;;;;;;67.95;32.35;;;6.20;99.90;;;;;;5016658;28;20413;-74
2022/12/01 07:08:55;;;;;;;66.30;31.25;;;6.20;99.90;;;;;;5017367;28;20430;-74
2022/12/01 07:11:20;;;;;;;68.07;31.60;;;6.10;99.90;;;;;;5009469;28;20418;-74
2022/12/01 07:13:48;;;;;;;69.87;33.43;;;6.10;99.90;;;;;;5029818;28;20780;-74
2022/12/01 07:16:14;;;;;;;68.07;31.90;;;6.00;99.90;;;;;;5039173;28;20478;-74
2022/12/01 07:18:40;;;;;;;64.95;31.83;;;6.00;99.90;;;;;;5036089;28;20734;-74
2022/12/01 07:21:09;;;;;;;62.58;30.00;;;6.00;99.90;;;;;;5023063;28;20927;-74
2022/12/01 07:23:35;;;;;;;68.50;32.78;;;5.90;99.90;;;;;;5035185;28;20399;-73
2022/12/01 07:26:09;;;;;;;72.78;33.60;;;5.90;99.90;;;;;;5034417;28;20405;-74
2022/12/01 07:28:35;;;;;;;68.10;33.47;;;5.90;99.90;;;;;;5039144;28;20401;-74
2022/12/01 07:31:06;;;;;;;70.47;32.80;;;5.90;99.90;;;;;;5033372;28;20407;-74
2022/12/01 07:33:33;;;;;;;66.95;32.97;;;5.90;99.90;;;;;;5032699;28;20414;-74
2022/12/01 07:35:59;;;;;;;62.65;32.30;;;5.90;99.90;;;;;;5044065;28;20811;-74
2022/12/01 07:38:27;;;;;;;66.82;31.52;;;6.00;99.90;;;;;;5035742;28;20435;-74
2022/12/01 07:40:53;;;;;;;65.38;31.83;;;6.00;99.90;;;;;;5039078;28;20899;-74
2022/12/01 07:43:18;;;;;;;67.88;32.92;;;6.00;99.90;;;;;;5017295;28;20406;-74
2022/12/01 07:45:44;;;;;;;64.77;31.77;;;6.00;99.90;;;;;;5027805;28;20411;-74
2022/12/01 07:48:09;;;;;;;66.60;32.42;;;6.00;99.90;;;;;;5009750;28;20418;-74
2022/12/01 07:50:35;;;;;;;65.23;31.30;;;6.00;99.90;;;;;;5027991;28;20407;-74
2022/12/01 07:53:01;;;;;;;68.40;31.45;;;6.00;99.90;;;;;;5039971;28;20401;-74
2022/12/01 07:55:26;;;;;;;70.43;30.45;;;6.00;99.90;;;;;;5043820;28;20404;-74
2022/12/01 07:57:52;;;;;;;63.20;32.33;;;6.00;99.90;;;;;;5040371;28;20429;-74
2022/12/01 08:00:18;;;;;;;65.50;31.17;;;6.00;99.90;;;;;;5010781;28;20819;-74
2022/12/01 08:02:46;;;;;;;64.53;30.73;;;6.00;99.90;;;;;;5036176;28;20409;-74
2022/12/01 08:05:12;;;;;;;67.50;31.83;;;6.00;99.90;;;;;;5028145;28;20532;-73
2022/12/01 08:07:37;;;;;;;61.90;30.77;;;5.90;99.90;;;;;;5006011;28;20971;-74
2022/12/01 08:10:03;;;;;;;66.80;32.10;;;5.90;99.90;;;;;;5016425;28;20482;-74
2022/12/01 08:12:29;;;;;;;67.72;31.65;;;5.90;99.90;;;;;;5019686;28;20413;-74
2022/12/01 08:14:54;;;;;;;66.00;30.90;;;5.90;99.90;;;;;;5023687;28;20402;-74
2022/12/01 08:17:20;;;;;;;69.87;31.73;;;5.90;99.90;;;;;;5039456;28;20407;-74
2022/12/01 08:19:45;;;;;;;68.45;32.75;;;5.90;99.90;;;;;;4999197;28;20883;-74
2022/12/01 08:22:11;;;;;;;61.23;30.47;;;5.80;99.90;;;;;;5023129;28;20399;-74
2022/12/01 08:24:37;;;;;;;68.65;31.40;;;5.80;99.90;;;;;;5033942;28;20421;-74
2022/12/01 08:27:02;;;;;;;64.68;30.58;;;5.80;99.90;;;;;;5038872;28;20411;-74
2022/12/01 08:29:28;;;;;;;67.93;30.90;;;5.70;99.90;;;;;;5030619;28;20428;-74
2022/12/01 08:31:57;;;;;;;67.28;31.08;;;5.70;99.90;;;;;;5036784;28;20411;-74
2022/12/01 08:34:22;;;;;;;66.40;31.05;;;5.70;99.90;;;;;;5025167;28;20925;-74
2022/12/01 08:36:48;;;;;;;65.97;30.98;;;5.70;99.90;;;;;;5036465;28;20408;-75
2022/12/01 08:39:14;;;;;;;65.97;30.30;;;5.70;99.90;;;;;;4999074;28;20438;-74
2022/12/01 08:41:41;;;;;;;67.65;31.25;;;5.60;99.90;;;;;;5040956;28;20482;-74
2022/12/01 08:44:07;;;;;;;68.57;30.52;;;5.60;99.90;;;;;;5027863;28;20501;-74
2022/12/01 08:46:34;;;;;;;67.45;31.20;;;5.60;99.90;;;;;;5016241;28;20405;-74
2022/12/01 08:49:01;;;;;;;68.40;32.38;;;5.70;99.90;;;;;;5033016;28;20514;-74
2022/12/01 08:51:27;;;;;;;70.97;32.25;;;5.70;99.90;;;;;;5032449;28;20397;-74
2022/12/01 08:53:54;;;;;;;66.35;32.55;;;5.70;99.90;;;;;;5044738;28;20406;-74
2022/12/01 08:56:21;;;;;;;75.88;34.42;;;5.80;99.90;;;;;;5044100;28;20453;-74
2022/12/01 08:58:47;;;;;;;75.60;35.15;;;5.90;99.90;;;;;;5028114;28;20427;-74
2022/12/01 09:01:15;;;;;;;69.83;34.73;;;5.90;99.90;;;;;;5032526;28;20489;-74
2022/12/01 09:03:41;;;;;;;71.38;35.08;;;6.00;99.90;;;;;;5030949;28;20414;-74
2022/12/01 09:06:13;;;;;;;64.85;33.88;;;6.10;99.90;;;;;;5043613;28;20766;-74
2022/12/01 09:08:40;;;;;;;68.13;33.60;;;6.20;99.90;;;;;;5031516;28;20500;-73
2022/12/01 09:11:17;;;;;;;62.17;32.63;;;6.20;99.90;;;;;;5027221;28;20485;-73
2022/12/01 09:13:43;;;;;;;66.22;33.72;;;6.30;99.90;;;;;;5043843;28;20401;-75
2022/12/01 09:16:15;;;;;;;63.33;32.38;;;6.40;99.90;;;;;;5035868;28;20397;-75
2022/12/01 09:18:42;;;;;;;67.00;33.70;;;6.40;99.90;;;;;;5043031;28;20947;-75
2022/12/01 09:21:29;;;;;;;60.58;32.60;;;6.40;99.90;;;;;;5035770;28;20403;-73
2022/12/01 09:23:55;;;;;;;62.85;33.08;;;6.50;99.90;;;;;;5044100;28;20426;-74
2022/12/01 09:26:21;;;;;;;69.57;34.15;;;6.50;99.90;;;;;;5030472;28;20399;-74
2022/12/01 09:28:53;;;;;;;65.45;34.83;;;6.50;99.90;;;;;;5025890;28;20484;-73
2022/12/01 09:31:19;;;;;;;67.05;33.22;;;6.60;99.90;;;;;;5044823;28;20408;-74
2022/12/01 09:33:45;;;;;;;63.50;32.80;;;6.60;99.90;;;;;;5034212;28;20395;-72
2022/12/01 09:36:11;;;;;;;66.25;33.63;;;6.60;99.90;;;;;;5002013;28;20909;-73
2022/12/01 09:38:38;;;;;;;65.43;33.17;;;6.70;99.90;;;;;;5017540;28;20433;-73
2022/12/01 09:41:21;;;;;;;62.75;32.97;;;6.60;99.90;;;;;;5006837;28;20406;-74
2022/12/01 09:44:09;;;;;;;63.95;32.92;;;6.60;99.90;;;;;;5000310;28;20507;-74
2022/12/01 09:46:40;;;;;;;66.15;33.28;;;6.70;99.90;;;;;;5044541;28;20884;-73
2022/12/01 09:49:14;;;;;;;61.55;32.20;;;6.70;99.90;;;;;;5026962;28;20442;-74
2022/12/01 09:51:39;;;;;;;60.13;32.78;;;6.70;99.90;;;;;;5005025;28;20422;-73
2022/12/01 09:54:08;;;;;;;65.25;33.63;;;6.70;99.90;;;;;;5011719;28;20972;-73
2022/12/01 09:56:41;;;;;;;59.13;31.83;;;6.70;99.90;;;;;;5031312;28;20466;-75
2022/12/01 09:59:16;;;;;;;59.08;31.98;;;6.60;99.90;;;;;;5035706;28;20468;-74
2022/12/01 10:01:45;;;;;;;60.57;32.70;;;6.60;99.90;;;;;;5005502;28;20427;-73
2022/12/01 10:04:21;;;;;;;59.13;32.78;;;6.60;99.90;;;;;;5029839;28;20445;-74
2022/12/01 10:07:12;;;;;;;59.80;32.17;;;6.70;99.90;;;;;;5012307;28;20439;-73
2022/12/01 10:09:55;;;;;;;64.55;33.50;;;6.70;99.90;;;;;;4992014;28;20431;-73
2022/12/01 10:12:26;;;;;;;64.53;33.07;;;6.70;99.90;;;;;;5015780;28;20418;-73
2022/12/01 10:14:55;;;;;;;59.05;33.53;;;6.70;99.90;;;;;;5002925;28;20462;-73
2022/12/01 10:17:45;;;;;;;59.65;32.92;;;6.70;99.90;;;;;;4996744;28;20490;-74
2022/12/01 10:20:43;;;;;;;61.20;32.83;;;6.70;99.90;;;;;;5019819;28;20478;-73
2022/12/01 10:23:32;;;;;;;61.22;33.42;;;6.70;99.90;;;;;;4995689;28;20477;-73
2022/12/01 10:26:13;;;;;;;61.95;32.67;;;6.70;99.90;;;;;;4992725;28;20416;-73
2022/12/01 10:28:57;;;;;;;61.95;32.83;;;6.70;99.90;;;;;;5027819;28;20403;-73
2022/12/01 10:31:44;;;;;;;61.33;33.28;;;6.70;99.90;;;;;;4998542;28;20777;-73
2022/12/01 10:34:13;;;;;;;63.47;33.10;;;6.70;99.90;;;;;;5006883;28;20426;-73
2022/12/01 10:36:38;;;;;;;63.40;34.42;;;6.70;99.90;;;;;;4983148;28;20446;-73
2022/12/01 10:39:06;;;;;;;67.47;34.53;;;6.70;99.90;;;;;;5011935;28;20428;-73
2022/12/01 10:41:36;;;;;;;64.28;33.70;;;6.70;99.90;;;;;;5022681;28;20455;-73
2022/12/01 10:44:04;;;;;;;58.42;33.00;;;6.70;99.90;;;;;;5001838;28;20430;-73
2022/12/01 10:46:43;;;;;;;61.63;32.27;;;6.70;99.90;;;;;;5006840;28;20909;-73
2022/12/01 10:49:12;;;;;;;59.20;32.75;;;6.80;99.90;;;;;;5007146;28;20436;-73
2022/12/01 10:51:58;;;;;;;59.90;32.63;;;6.80;99.90;;;;;;5002241;28;20416;-73
2022/12/01 10:54:39;;;;;;;64.63;33.47;;;6.80;99.90;;;;;;5019988;28;20438;-73
2022/12/01 10:57:11;;;;;;;57.97;31.55;;;6.80;99.90;;;;;;5008690;28;20830;-73
2022/12/01 10:59:53;;;;;;;55.20;30.93;;;6.80;99.90;;;;;;5013236;28;20535;-73
2022/12/01 11:02:25;;;;;;;59.05;32.05;;;6.80;99.90;;;;;;5011947;28;20424;-76
2022/12/01 11:05:03;;;;;;;58.60;31.75;;;6.80;99.90;;;;;;4995478;28;20445;-76
2022/12/01 11:07:41;;;;;;;58.75;33.10;;;6.80;99.90;;;;;;5017915;28;20427;-73
2022/12/01 11:10:12;;;;;;;60.92;33.17;;;6.80;99.90;;;;;;4996794;28;20500;-73
2022/12/01 11:12:39;;;;;;;60.83;33.47;;;6.90;99.90;;;;;;5021645;28;20439;-76
2022/12/01 11:15:05;;;;;;;62.33;32.10;;;6.90;99.90;;;;;;4992001;28;20506;-73
2022/12/01 11:17:41;;;;;;;61.47;33.53;;;6.90;99.90;;;;;;4998938;28;20817;-73
2022/12/01 11:20:28;;;;;;;58.95;32.75;;;6.90;99.90;;;;;;5027299;28;20411;-73
2022/12/01 11:23:20;;;;;;;58.70;32.53;;;6.90;99.90;;;;;;5006024;28;20419;-75
2022/12/01 11:26:06;;;;;;;60.83;31.48;;;6.90;99.90;;;;;;5001321;28;20421;-75
2022/12/01 11:28:33;;;;;;;57.55;31.38;;;6.90;99.90;;;;;;5000323;28;21015;-76
2022/12/01 11:31:06;;;;;;;55.28;31.05;;;6.90;99.90;;;;;;5024322;28;20991;-74
2022/12/01 11:33:42;;;;;;;54.03;30.52;;;6.80;99.90;;;;;;5009434;28;20926;-74
2022/12/01 11:36:08;;;;;;;54.78;31.10;;;6.80;99.90;;;;;;5013259;28;20762;-74
2022/12/01 11:38:33;;;;;;;56.40;30.90;;;6.80;99.90;;;;;;5006283;28;20811;-74
2022/12/01 11:40:59;;;;;;;60.15;31.88;;;6.80;99.90;;;;;;5007231;28;20420;-76
2022/12/01 11:43:25;;;;;;;52.97;30.63;;;6.80;99.90;;;;;;5008474;28;20424;-75
2022/12/01 11:45:51;;;;;;;53.53;29.70;;;6.80;99.90;;;;;;4988932;28;20463;-75
2022/12/01 11:48:27;;;;;;;48.23;28.17;;;6.80;99.90;;;;;;5019328;28;20482;-74
2022/12/01 11:51:07;;;;;;;48.70;28.88;;;6.80;99.90;;;;;;5008771;28;20419;-75
2022/12/01 11:53:37;;;;;;;44.58;27.35;;;6.80;99.90;;;;;;4971531;28;20416;-75
2022/12/01 11:56:27;;;;;;;45.15;27.23;;;6.70;99.90;;;;;;5002472;28;20813;-75
2022/12/01 11:59:01;;;;;;;45.05;27.80;;;6.80;99.90;;;;;;4992093;28;20928;-75
2022/12/01 12:01:50;;;;;;;43.63;27.33;;;6.80;99.90;;;;;;4986395;28;20420;-74
2022/12/01 12:04:40;;;;;;;44.55;27.83;;;6.80;99.90;;;;;;5009769;28;20792;-74
2022/12/01 12:07:27;;;;;;;46.92;29.02;;;6.70;99.90;;;;;;5020724;28;20461;-74
2022/12/01 12:10:14;;;;;;;46.35;28.65;;;6.70;99.90;;;;;;5009532;28;20415;-74
2022/12/01 12:13:28;;;;;;;46.78;28.17;;;6.70;99.90;;;;;;5016735;28;20415;-75
2022/12/01 12:16:39;;;;;;;48.88;28.60;;;6.70;99.90;;;;;;5017599;28;20484;-75
2022/12/01 12:19:23;;;;;;;49.35;29.98;;;6.70;99.90;;;;;;5035955;28;20440;-74
2022/12/01 12:22:07;;;;;;;50.57;30.07;;;6.60;99.90;;;;;;5030708;28;20435;-75
2022/12/01 12:24:53;;;;;;;51.40;30.27;;;6.70;99.90;;;;;;5034585;28;20426;-75
2022/12/01 12:27:32;;;;;;;50.75;30.77;;;6.70;99.90;;;;;;5035522;28;20438;-74
2022/12/01 12:30:25;;;;;;;52.17;30.30;;;6.60;99.90;;;;;;5022805;28;20802;-75
2022/12/01 12:33:11;;;;;;;52.30;31.07;;;6.60;99.90;;;;;;5023852;28;20431;-74
2022/12/01 12:36:03;;;;;;;55.58;31.73;;;6.60;99.90;;;;;;5023766;28;20489;-74
2022/12/01 12:38:58;;;;;;;53.75;30.77;;;6.60;99.90;;;;;;5017055;28;20445;-75
2022/12/01 12:41:32;;;;;;;53.35;32.00;;;6.60;99.90;;;;;;5032193;28;20493;-75
2022/12/01 12:44:12;;;;;;;57.22;32.67;;;6.50;99.90;;;;;;5030745;28;20517;-75
2022/12/01 12:46:44;;;;;;;54.13;31.47;;;6.50;99.90;;;;;;5013013;28;20437;-75
2022/12/01 12:49:16;;;;;;;53.70;31.98;;;6.50;99.90;;;;;;5019789;28;20419;-75
2022/12/01 12:52:27;;;;;;;55.05;31.17;;;6.50;99.90;;;;;;5017398;28;20407;-75
2022/12/01 12:54:58;;;;;;;55.47;32.45;;;6.50;99.90;;;;;;5017807;28;20403;-75
2022/12/01 12:57:52;;;;;;;52.42;32.28;;;6.50;99.90;;;;;;5031155;28;20458;-74
2022/12/01 13:00:22;;;;;;;54.30;31.58;;;6.50;99.90;;;;;;5032418;28;20473;-75
2022/12/01 13:03:14;;;;;;;53.80;31.48;;;6.50;99.90;;;;;;5015359;28;20444;-74